Terminal Aerodrome Forecast
Issued by NWS

Home | Current Version | Previous Version | Graphics & Text | Print | Product List | Glossary On
Versions: 1 2 3 4 5 6 7 8 9 10 11 12 13 14 15
000
FTUS43 KIWX 200500
TAFSBN
TAF
KSBN 200536Z 2006/2106 27015G23KT P6SM OVC040
      TEMPO 2006/2009 3SM -SHSN OVC035
     FM201500 27018G25KT 4SM -SHSN OVC025
     FM201900 28015G22KT 2SM -SHSN OVC030
     FM202300 28012KT P6SM BKN035=

USA.gov is the U.S. government's official web portal to all federal, state and local government web resources and services.